sensor_id;sensor_type;location;lat;lon;timestamp;P1;durP1;ratioP1;P2;durP2;ratioP2
3757;SDS011;1894;51.038;13.692;2024-02-16T00:01:02;38.40;;;23.30;;
3757;SDS011;1894;51.038;13.692;2024-02-16T00:03:29;33.07;;;21.60;;
3757;SDS011;1894;51.038;13.692;2024-02-16T00:05:57;38.93;;;23.03;;
3757;SDS011;1894;51.038;13.692;2024-02-16T00:08:25;31.90;;;20.40;;
3757;SDS011;1894;51.038;13.692;2024-02-16T00:10:52;34.40;;;21.47;;
3757;SDS011;1894;51.038;13.692;2024-02-16T00:13:19;42.67;;;21.90;;
3757;SDS011;1894;51.038;13.692;2024-02-16T00:15:46;35.77;;;23.63;;
3757;SDS011;1894;51.038;13.692;2024-02-16T00:18:14;34.03;;;22.13;;
3757;SDS011;1894;51.038;13.692;2024-02-16T00:20:41;34.73;;;22.40;;
3757;SDS011;1894;51.038;13.692;2024-02-16T00:23:08;28.97;;;19.03;;
3757;SDS011;1894;51.038;13.692;2024-02-16T00:25:35;34.27;;;19.70;;
3757;SDS011;1894;51.038;13.692;2024-02-16T00:28:04;31.23;;;20.60;;
3757;SDS011;1894;51.038;13.692;2024-02-16T00:30:32;33.63;;;20.57;;
3757;SDS011;1894;51.038;13.692;2024-02-16T00:32:59;36.67;;;20.60;;
3757;SDS011;1894;51.038;13.692;2024-02-16T00:35:27;30.50;;;19.70;;
3757;SDS011;1894;51.038;13.692;2024-02-16T00:37:57;31.47;;;20.20;;
3757;SDS011;1894;51.038;13.692;2024-02-16T00:40:25;27.27;;;18.90;;
3757;SDS011;1894;51.038;13.692;2024-02-16T00:42:52;31.33;;;19.93;;
3757;SDS011;1894;51.038;13.692;2024-02-16T00:45:21;30.07;;;19.50;;
3757;SDS011;1894;51.038;13.692;2024-02-16T00:47:48;28.50;;;18.23;;
3757;SDS011;1894;51.038;13.692;2024-02-16T00:50:15;27.53;;;18.60;;
3757;SDS011;1894;51.038;13.692;2024-02-16T00:52:42;28.37;;;19.33;;
3757;SDS011;1894;51.038;13.692;2024-02-16T00:55:11;32.60;;;20.87;;
3757;SDS011;1894;51.038;13.692;2024-02-16T00:57:39;31.00;;;18.77;;
3757;SDS011;1894;51.038;13.692;2024-02-16T01:00:07;30.83;;;18.93;;
3757;SDS011;1894;51.038;13.692;2024-02-16T01:02:35;32.50;;;18.60;;
3757;SDS011;1894;51.038;13.692;2024-02-16T01:05:03;28.30;;;18.63;;
3757;SDS011;1894;51.038;13.692;2024-02-16T01:07:31;28.73;;;17.40;;
3757;SDS011;1894;51.038;13.692;2024-02-16T01:09:59;29.10;;;18.83;;
3757;SDS011;1894;51.038;13.692;2024-02-16T01:12:26;30.40;;;17.00;;
3757;SDS011;1894;51.038;13.692;2024-02-16T01:14:53;29.23;;;18.13;;
3757;SDS011;1894;51.038;13.692;2024-02-16T01:17:20;28.47;;;17.43;;
3757;SDS011;1894;51.038;13.692;2024-02-16T01:19:48;26.50;;;15.93;;
3757;SDS011;1894;51.038;13.692;2024-02-16T01:22:15;26.57;;;16.30;;
3757;SDS011;1894;51.038;13.692;2024-02-16T01:24:42;26.13;;;16.47;;
3757;SDS011;1894;51.038;13.692;2024-02-16T01:27:09;28.40;;;17.83;;
3757;SDS011;1894;51.038;13.692;2024-02-16T01:29:37;26.70;;;17.70;;
3757;SDS011;1894;51.038;13.692;2024-02-16T01:32:04;34.10;;;18.77;;
3757;SDS011;1894;51.038;13.692;2024-02-16T01:34:31;31.27;;;17.50;;
3757;SDS011;1894;51.038;13.692;2024-02-16T01:36:59;33.67;;;17.37;;
3757;SDS011;1894;51.038;13.692;2024-02-16T01:39:26;28.30;;;17.57;;
3757;SDS011;1894;51.038;13.692;2024-02-16T01:41:53;33.93;;;18.30;;
3757;SDS011;1894;51.038;13.692;2024-02-16T01:44:21;29.30;;;17.50;;
3757;SDS011;1894;51.038;13.692;2024-02-16T01:46:48;33.70;;;19.07;;
3757;SDS011;1894;51.038;13.692;2024-02-16T01:49:15;26.07;;;17.87;;
3757;SDS011;1894;51.038;13.692;2024-02-16T01:51:42;25.57;;;16.93;;
3757;SDS011;1894;51.038;13.692;2024-02-16T01:54:14;32.73;;;17.83;;
3757;SDS011;1894;51.038;13.692;2024-02-16T01:56:44;29.17;;;16.70;;
3757;SDS011;1894;51.038;13.692;2024-02-16T01:59:13;30.73;;;17.97;;
3757;SDS011;1894;51.038;13.692;2024-02-16T02:01:40;28.20;;;16.50;;
3757;SDS011;1894;51.038;13.692;2024-02-16T02:04:07;28.43;;;18.30;;
3757;SDS011;1894;51.038;13.692;2024-02-16T02:06:35;41.30;;;24.00;;
3757;SDS011;1894;51.038;13.692;2024-02-16T02:09:02;30.90;;;19.17;;
3757;SDS011;1894;51.038;13.692;2024-02-16T02:11:30;31.93;;;19.43;;
3757;SDS011;1894;51.038;13.692;2024-02-16T02:13:57;31.23;;;19.60;;
3757;SDS011;1894;51.038;13.692;2024-02-16T02:16:24;33.20;;;20.70;;
3757;SDS011;1894;51.038;13.692;2024-02-16T02:18:53;31.97;;;19.90;;
3757;SDS011;1894;51.038;13.692;2024-02-16T02:21:20;38.53;;;22.33;;
3757;SDS011;1894;51.038;13.692;2024-02-16T02:23:48;37.40;;;20.10;;
3757;SDS011;1894;51.038;13.692;2024-02-16T02:26:15;30.30;;;19.40;;
3757;SDS011;1894;51.038;13.692;2024-02-16T02:28:45;35.67;;;23.30;;
3757;SDS011;1894;51.038;13.692;2024-02-16T02:31:12;32.87;;;20.00;;
3757;SDS011;1894;51.038;13.692;2024-02-16T02:33:40;31.80;;;19.27;;
3757;SDS011;1894;51.038;13.692;2024-02-16T02:36:07;35.30;;;22.07;;
3757;SDS011;1894;51.038;13.692;2024-02-16T02:38:34;36.47;;;19.47;;
3757;SDS011;1894;51.038;13.692;2024-02-16T02:41:01;30.60;;;20.37;;
3757;SDS011;1894;51.038;13.692;2024-02-16T02:43:33;35.43;;;22.03;;
3757;SDS011;1894;51.038;13.692;2024-02-16T02:46:00;38.63;;;20.73;;
3757;SDS011;1894;51.038;13.692;2024-02-16T02:48:27;37.70;;;21.07;;
3757;SDS011;1894;51.038;13.692;2024-02-16T02:50:55;36.23;;;20.97;;
3757;SDS011;1894;51.038;13.692;2024-02-16T02:53:23;30.80;;;20.03;;
3757;SDS011;1894;51.038;13.692;2024-02-16T02:55:50;33.10;;;20.20;;
3757;SDS011;1894;51.038;13.692;2024-02-16T02:58:17;32.57;;;19.57;;
3757;SDS011;1894;51.038;13.692;2024-02-16T03:00:44;36.13;;;20.33;;
3757;SDS011;1894;51.038;13.692;2024-02-16T03:03:11;30.77;;;20.40;;
3757;SDS011;1894;51.038;13.692;2024-02-16T03:05:41;28.90;;;19.20;;
3757;SDS011;1894;51.038;13.692;2024-02-16T03:08:08;34.13;;;21.30;;
3757;SDS011;1894;51.038;13.692;2024-02-16T03:10:37;30.57;;;19.93;;
3757;SDS011;1894;51.038;13.692;2024-02-16T03:13:05;27.87;;;18.80;;
3757;SDS011;1894;51.038;13.692;2024-02-16T03:15:36;25.30;;;17.60;;
3757;SDS011;1894;51.038;13.692;2024-02-16T03:18:04;28.50;;;18.93;;
3757;SDS011;1894;51.038;13.692;2024-02-16T03:20:35;30.47;;;20.50;;
3757;SDS011;1894;51.038;13.692;2024-02-16T03:23:03;30.90;;;18.67;;
3757;SDS011;1894;51.038;13.692;2024-02-16T03:25:31;24.63;;;16.90;;
3757;SDS011;1894;51.038;13.692;2024-02-16T03:27:58;28.57;;;18.10;;
3757;SDS011;1894;51.038;13.692;2024-02-16T03:30:25;30.73;;;18.87;;
3757;SDS011;1894;51.038;13.692;2024-02-16T03:32:52;27.40;;;17.57;;
3757;SDS011;1894;51.038;13.692;2024-02-16T03:35:19;31.30;;;18.70;;
3757;SDS011;1894;51.038;13.692;2024-02-16T03:37:46;28.50;;;17.73;;
3757;SDS011;1894;51.038;13.692;2024-02-16T03:40:14;26.73;;;18.10;;
3757;SDS011;1894;51.038;13.692;2024-02-16T03:42:41;26.97;;;18.00;;
3757;SDS011;1894;51.038;13.692;2024-02-16T03:45:08;30.80;;;18.47;;
3757;SDS011;1894;51.038;13.692;2024-02-16T03:47:36;25.67;;;17.30;;
3757;SDS011;1894;51.038;13.692;2024-02-16T03:50:03;29.40;;;18.97;;
3757;SDS011;1894;51.038;13.692;2024-02-16T03:52:30;27.10;;;17.60;;
3757;SDS011;1894;51.038;13.692;2024-02-16T03:54:57;27.17;;;17.53;;
3757;SDS011;1894;51.038;13.692;2024-02-16T03:57:24;28.70;;;18.37;;
3757;SDS011;1894;51.038;13.692;2024-02-16T03:59:52;29.30;;;17.30;;
3757;SDS011;1894;51.038;13.692;2024-02-16T04:02:20;26.20;;;18.23;;
3757;SDS011;1894;51.038;13.692;2024-02-16T04:04:48;28.87;;;19.60;;
3757;SDS011;1894;51.038;13.692;2024-02-16T04:07:15;28.17;;;19.00;;
3757;SDS011;1894;51.038;13.692;2024-02-16T04:09:43;30.33;;;19.60;;
3757;SDS011;1894;51.038;13.692;2024-02-16T04:12:10;29.17;;;18.50;;
3757;SDS011;1894;51.038;13.692;2024-02-16T04:14:37;28.03;;;19.70;;
3757;SDS011;1894;51.038;13.692;2024-02-16T04:17:04;29.33;;;17.60;;
3757;SDS011;1894;51.038;13.692;2024-02-16T04:19:32;26.37;;;17.60;;
3757;SDS011;1894;51.038;13.692;2024-02-16T04:21:59;31.30;;;18.83;;
3757;SDS011;1894;51.038;13.692;2024-02-16T04:24:26;26.07;;;17.17;;
3757;SDS011;1894;51.038;13.692;2024-02-16T04:26:54;27.50;;;18.40;;
3757;SDS011;1894;51.038;13.692;2024-02-16T04:29:21;31.50;;;18.87;;
3757;SDS011;1894;51.038;13.692;2024-02-16T04:31:48;25.27;;;16.90;;
3757;SDS011;1894;51.038;13.692;2024-02-16T04:34:15;26.20;;;17.50;;
3757;SDS011;1894;51.038;13.692;2024-02-16T04:36:42;27.50;;;17.50;;
3757;SDS011;1894;51.038;13.692;2024-02-16T04:39:10;30.53;;;17.90;;
3757;SDS011;1894;51.038;13.692;2024-02-16T04:41:38;30.00;;;17.73;;
3757;SDS011;1894;51.038;13.692;2024-02-16T04:44:05;26.90;;;17.60;;
3757;SDS011;1894;51.038;13.692;2024-02-16T04:46:32;25.00;;;17.20;;
3757;SDS011;1894;51.038;13.692;2024-02-16T04:49:00;25.80;;;17.30;;
3757;SDS011;1894;51.038;13.692;2024-02-16T04:51:27;26.47;;;17.47;;
3757;SDS011;1894;51.038;13.692;2024-02-16T04:53:54;29.93;;;17.47;;
3757;SDS011;1894;51.038;13.692;2024-02-16T04:56:21;27.40;;;18.07;;
3757;SDS011;1894;51.038;13.692;2024-02-16T04:58:49;25.90;;;16.87;;
3757;SDS011;1894;51.038;13.692;2024-02-16T05:01:16;26.27;;;16.90;;
3757;SDS011;1894;51.038;13.692;2024-02-16T05:03:46;25.17;;;17.70;;
3757;SDS011;1894;51.038;13.692;2024-02-16T05:06:13;24.97;;;16.17;;
3757;SDS011;1894;51.038;13.692;2024-02-16T05:08:41;27.27;;;18.53;;
3757;SDS011;1894;51.038;13.692;2024-02-16T05:11:08;35.30;;;19.93;;
3757;SDS011;1894;51.038;13.692;2024-02-16T05:13:36;26.30;;;17.40;;
3757;SDS011;1894;51.038;13.692;2024-02-16T05:16:07;24.47;;;17.37;;
3757;SDS011;1894;51.038;13.692;2024-02-16T05:18:36;24.43;;;17.37;;
3757;SDS011;1894;51.038;13.692;2024-02-16T05:21:04;26.50;;;18.13;;
3757;SDS011;1894;51.038;13.692;2024-02-16T05:23:32;24.80;;;18.17;;
3757;SDS011;1894;51.038;13.692;2024-02-16T05:26:00;29.23;;;20.30;;
3757;SDS011;1894;51.038;13.692;2024-02-16T05:28:29;28.37;;;18.80;;
3757;SDS011;1894;51.038;13.692;2024-02-16T05:31:16;27.70;;;19.40;;
3757;SDS011;1894;51.038;13.692;2024-02-16T05:33:47;32.13;;;20.70;;
3757;SDS011;1894;51.038;13.692;2024-02-16T05:36:22;26.40;;;19.40;;
3757;SDS011;1894;51.038;13.692;2024-02-16T05:38:57;35.37;;;21.57;;
3757;SDS011;1894;51.038;13.692;2024-02-16T05:41:36;28.37;;;19.70;;
3757;SDS011;1894;51.038;13.692;2024-02-16T05:44:10;33.60;;;23.00;;
3757;SDS011;1894;51.038;13.692;2024-02-16T05:46:38;28.97;;;21.67;;
3757;SDS011;1894;51.038;13.692;2024-02-16T05:49:05;29.40;;;21.83;;
3757;SDS011;1894;51.038;13.692;2024-02-16T05:51:36;31.20;;;21.57;;
3757;SDS011;1894;51.038;13.692;2024-02-16T05:54:05;33.83;;;21.63;;
3757;SDS011;1894;51.038;13.692;2024-02-16T05:56:34;31.40;;;20.50;;
3757;SDS011;1894;51.038;13.692;2024-02-16T05:59:03;29.73;;;21.20;;
3757;SDS011;1894;51.038;13.692;2024-02-16T06:01:30;27.90;;;21.90;;
3757;SDS011;1894;51.038;13.692;2024-02-16T06:03:58;42.33;;;24.23;;
3757;SDS011;1894;51.038;13.692;2024-02-16T06:06:27;32.90;;;23.40;;
3757;SDS011;1894;51.038;13.692;2024-02-16T06:08:55;35.53;;;23.50;;
3757;SDS011;1894;51.038;13.692;2024-02-16T06:11:23;37.10;;;24.43;;
3757;SDS011;1894;51.038;13.692;2024-02-16T06:13:52;32.73;;;23.87;;
3757;SDS011;1894;51.038;13.692;2024-02-16T06:16:20;34.10;;;22.37;;
3757;SDS011;1894;51.038;13.692;2024-02-16T06:18:47;32.13;;;22.27;;
3757;SDS011;1894;51.038;13.692;2024-02-16T06:21:16;39.20;;;24.77;;
3757;SDS011;1894;51.038;13.692;2024-02-16T06:23:43;36.03;;;24.10;;
3757;SDS011;1894;51.038;13.692;2024-02-16T06:26:10;34.83;;;24.67;;
3757;SDS011;1894;51.038;13.692;2024-02-16T06:28:37;33.67;;;23.47;;
3757;SDS011;1894;51.038;13.692;2024-02-16T06:31:05;34.83;;;22.53;;
3757;SDS011;1894;51.038;13.692;2024-02-16T06:33:32;35.63;;;24.17;;
3757;SDS011;1894;51.038;13.692;2024-02-16T06:35:59;31.80;;;23.83;;
3757;SDS011;1894;51.038;13.692;2024-02-16T06:38:26;33.17;;;23.77;;
3757;SDS011;1894;51.038;13.692;2024-02-16T06:40:53;33.27;;;22.90;;
3757;SDS011;1894;51.038;13.692;2024-02-16T06:43:20;37.23;;;24.97;;
3757;SDS011;1894;51.038;13.692;2024-02-16T06:45:47;32.73;;;24.40;;
3757;SDS011;1894;51.038;13.692;2024-02-16T06:48:15;39.23;;;25.63;;
3757;SDS011;1894;51.038;13.692;2024-02-16T06:50:42;31.70;;;22.47;;
3757;SDS011;1894;51.038;13.692;2024-02-16T06:53:09;38.00;;;23.00;;
3757;SDS011;1894;51.038;13.692;2024-02-16T06:55:36;33.43;;;23.13;;
3757;SDS011;1894;51.038;13.692;2024-02-16T06:58:03;32.33;;;23.33;;
3757;SDS011;1894;51.038;13.692;2024-02-16T07:00:30;34.07;;;23.77;;
3757;SDS011;1894;51.038;13.692;2024-02-16T07:02:58;36.27;;;23.77;;
3757;SDS011;1894;51.038;13.692;2024-02-16T07:05:25;35.10;;;25.03;;
3757;SDS011;1894;51.038;13.692;2024-02-16T07:07:54;34.77;;;24.47;;
3757;SDS011;1894;51.038;13.692;2024-02-16T07:10:21;38.17;;;23.20;;
3757;SDS011;1894;51.038;13.692;2024-02-16T07:12:48;30.50;;;22.60;;
3757;SDS011;1894;51.038;13.692;2024-02-16T07:15:15;37.07;;;24.20;;
3757;SDS011;1894;51.038;13.692;2024-02-16T07:17:42;34.03;;;23.50;;
3757;SDS011;1894;51.038;13.692;2024-02-16T07:20:10;31.50;;;23.13;;
3757;SDS011;1894;51.038;13.692;2024-02-16T07:22:42;29.20;;;22.03;;
3757;SDS011;1894;51.038;13.692;2024-02-16T07:25:10;34.13;;;24.00;;
3757;SDS011;1894;51.038;13.692;2024-02-16T07:27:39;33.53;;;24.13;;
3757;SDS011;1894;51.038;13.692;2024-02-16T07:30:06;27.43;;;20.40;;
3757;SDS011;1894;51.038;13.692;2024-02-16T07:32:34;34.13;;;22.27;;
3757;SDS011;1894;51.038;13.692;2024-02-16T07:35:02;32.13;;;22.30;;
3757;SDS011;1894;51.038;13.692;2024-02-16T07:37:30;30.50;;;22.23;;
3757;SDS011;1894;51.038;13.692;2024-02-16T07:39:57;31.03;;;22.63;;
3757;SDS011;1894;51.038;13.692;2024-02-16T07:42:24;13.53;;;8.30;;
3757;SDS011;1894;51.038;13.692;2024-02-16T07:44:52;27.70;;;20.77;;
3757;SDS011;1894;51.038;13.692;2024-02-16T07:47:20;29.03;;;20.93;;
3757;SDS011;1894;51.038;13.692;2024-02-16T07:49:47;30.37;;;19.73;;
3757;SDS011;1894;51.038;13.692;2024-02-16T07:52:14;34.53;;;23.13;;
3757;SDS011;1894;51.038;13.692;2024-02-16T07:54:41;28.90;;;21.80;;
3757;SDS011;1894;51.038;13.692;2024-02-16T07:57:09;27.93;;;20.70;;
3757;SDS011;1894;51.038;13.692;2024-02-16T07:59:36;25.17;;;19.20;;
3757;SDS011;1894;51.038;13.692;2024-02-16T08:02:03;24.73;;;19.60;;
3757;SDS011;1894;51.038;13.692;2024-02-16T08:04:30;27.17;;;21.10;;
3757;SDS011;1894;51.038;13.692;2024-02-16T08:06:57;28.57;;;21.87;;
3757;SDS011;1894;51.038;13.692;2024-02-16T08:09:27;23.57;;;19.03;;
3757;SDS011;1894;51.038;13.692;2024-02-16T08:11:55;26.07;;;19.50;;
3757;SDS011;1894;51.038;13.692;2024-02-16T08:14:22;26.17;;;20.53;;
3757;SDS011;1894;51.038;13.692;2024-02-16T08:16:49;24.60;;;19.97;;
3757;SDS011;1894;51.038;13.692;2024-02-16T08:19:35;29.40;;;20.30;;
3757;SDS011;1894;51.038;13.692;2024-02-16T08:22:06;28.80;;;19.90;;
3757;SDS011;1894;51.038;13.692;2024-02-16T08:24:35;27.53;;;20.37;;
3757;SDS011;1894;51.038;13.692;2024-02-16T08:27:03;28.10;;;20.53;;
3757;SDS011;1894;51.038;13.692;2024-02-16T08:29:31;23.40;;;18.83;;
3757;SDS011;1894;51.038;13.692;2024-02-16T08:31:58;36.37;;;19.93;;
3757;SDS011;1894;51.038;13.692;2024-02-16T08:34:25;21.93;;;18.30;;
3757;SDS011;1894;51.038;13.692;2024-02-16T08:36:52;30.43;;;21.37;;
3757;SDS011;1894;51.038;13.692;2024-02-16T08:39:21;23.40;;;19.67;;
3757;SDS011;1894;51.038;13.692;2024-02-16T08:41:51;23.20;;;18.13;;
3757;SDS011;1894;51.038;13.692;2024-02-16T08:44:18;24.00;;;17.87;;
3757;SDS011;1894;51.038;13.692;2024-02-16T08:46:45;24.00;;;19.03;;
3757;SDS011;1894;51.038;13.692;2024-02-16T08:49:15;22.63;;;18.53;;
3757;SDS011;1894;51.038;13.692;2024-02-16T08:51:43;24.10;;;18.43;;
3757;SDS011;1894;51.038;13.692;2024-02-16T08:54:10;22.73;;;18.77;;
3757;SDS011;1894;51.038;13.692;2024-02-16T08:56:38;26.20;;;20.13;;
3757;SDS011;1894;51.038;13.692;2024-02-16T08:59:05;23.17;;;17.47;;
3757;SDS011;1894;51.038;13.692;2024-02-16T09:01:36;31.40;;;18.63;;
3757;SDS011;1894;51.038;13.692;2024-02-16T09:04:08;24.53;;;18.73;;
3757;SDS011;1894;51.038;13.692;2024-02-16T09:06:35;21.80;;;17.43;;
3757;SDS011;1894;51.038;13.692;2024-02-16T09:09:03;20.67;;;16.73;;
3757;SDS011;1894;51.038;13.692;2024-02-16T09:11:30;20.67;;;17.80;;
3757;SDS011;1894;51.038;13.692;2024-02-16T09:13:58;25.40;;;19.03;;
3757;SDS011;1894;51.038;13.692;2024-02-16T09:16:25;22.57;;;18.50;;
3757;SDS011;1894;51.038;13.692;2024-02-16T09:18:52;24.33;;;19.13;;
3757;SDS011;1894;51.038;13.692;2024-02-16T09:21:20;28.27;;;19.70;;
3757;SDS011;1894;51.038;13.692;2024-02-16T09:23:49;23.67;;;17.77;;
3757;SDS011;1894;51.038;13.692;2024-02-16T09:26:16;23.37;;;18.40;;
3757;SDS011;1894;51.038;13.692;2024-02-16T09:28:43;22.23;;;18.17;;
3757;SDS011;1894;51.038;13.692;2024-02-16T09:31:14;22.17;;;19.13;;
3757;SDS011;1894;51.038;13.692;2024-02-16T09:33:41;23.10;;;18.70;;
3757;SDS011;1894;51.038;13.692;2024-02-16T09:36:09;26.90;;;17.60;;
3757;SDS011;1894;51.038;13.692;2024-02-16T09:38:37;23.43;;;18.63;;
3757;SDS011;1894;51.038;13.692;2024-02-16T09:41:04;22.83;;;17.80;;
3757;SDS011;1894;51.038;13.692;2024-02-16T09:43:32;20.00;;;17.20;;
3757;SDS011;1894;51.038;13.692;2024-02-16T09:45:59;24.50;;;16.80;;
3757;SDS011;1894;51.038;13.692;2024-02-16T09:48:26;31.43;;;17.77;;
3757;SDS011;1894;51.038;13.692;2024-02-16T09:50:55;24.40;;;18.73;;
3757;SDS011;1894;51.038;13.692;2024-02-16T09:53:27;25.73;;;17.87;;
3757;SDS011;1894;51.038;13.692;2024-02-16T09:55:55;24.40;;;18.17;;
3757;SDS011;1894;51.038;13.692;2024-02-16T09:58:23;24.57;;;17.30;;
3757;SDS011;1894;51.038;13.692;2024-02-16T10:00:54;25.07;;;18.30;;
3757;SDS011;1894;51.038;13.692;2024-02-16T10:05:52;23.20;;;18.53;;
3757;SDS011;1894;51.038;13.692;2024-02-16T10:08:35;25.00;;;17.87;;
3757;SDS011;1894;51.038;13.692;2024-02-16T10:11:14;20.83;;;18.27;;
3757;SDS011;1894;51.038;13.692;2024-02-16T10:13:43;22.43;;;18.83;;
3757;SDS011;1894;51.038;13.692;2024-02-16T10:16:11;20.30;;;16.40;;
3757;SDS011;1894;51.038;13.692;2024-02-16T10:18:38;22.77;;;18.80;;
3757;SDS011;1894;51.038;13.692;2024-02-16T10:21:05;22.37;;;18.37;;
3757;SDS011;1894;51.038;13.692;2024-02-16T10:23:35;22.13;;;17.70;;
3757;SDS011;1894;51.038;13.692;2024-02-16T10:26:09;20.87;;;16.53;;
3757;SDS011;1894;51.038;13.692;2024-02-16T10:28:36;22.10;;;17.57;;
3757;SDS011;1894;51.038;13.692;2024-02-16T10:31:04;22.00;;;16.93;;
3757;SDS011;1894;51.038;13.692;2024-02-16T10:33:32;20.80;;;17.40;;
3757;SDS011;1894;51.038;13.692;2024-02-16T10:36:02;23.27;;;18.37;;
3757;SDS011;1894;51.038;13.692;2024-02-16T10:38:31;20.80;;;16.60;;
3757;SDS011;1894;51.038;13.692;2024-02-16T10:40:59;20.47;;;16.30;;
3757;SDS011;1894;51.038;13.692;2024-02-16T10:43:27;19.70;;;16.40;;
3757;SDS011;1894;51.038;13.692;2024-02-16T10:45:56;18.00;;;15.93;;
3757;SDS011;1894;51.038;13.692;2024-02-16T10:48:24;19.10;;;16.07;;
3757;SDS011;1894;51.038;13.692;2024-02-16T10:50:51;17.10;;;14.90;;
3757;SDS011;1894;51.038;13.692;2024-02-16T10:53:27;15.97;;;13.50;;
3757;SDS011;1894;51.038;13.692;2024-02-16T10:55:57;21.60;;;17.33;;
3757;SDS011;1894;51.038;13.692;2024-02-16T10:58:26;16.00;;;14.30;;
3757;SDS011;1894;51.038;13.692;2024-02-16T11:00:55;17.13;;;14.90;;
3757;SDS011;1894;51.038;13.692;2024-02-16T11:03:24;19.17;;;15.10;;
3757;SDS011;1894;51.038;13.692;2024-02-16T11:05:54;21.73;;;14.77;;
3757;SDS011;1894;51.038;13.692;2024-02-16T11:08:23;24.83;;;15.70;;
3757;SDS011;1894;51.038;13.692;2024-02-16T11:11:02;25.43;;;15.37;;
3757;SDS011;1894;51.038;13.692;2024-02-16T11:13:33;19.43;;;16.50;;
3757;SDS011;1894;51.038;13.692;2024-02-16T11:16:03;23.03;;;17.30;;
3757;SDS011;1894;51.038;13.692;2024-02-16T11:18:38;25.87;;;16.10;;
3757;SDS011;1894;51.038;13.692;2024-02-16T11:21:16;17.00;;;14.80;;
3757;SDS011;1894;51.038;13.692;2024-02-16T11:23:44;32.80;;;16.63;;
3757;SDS011;1894;51.038;13.692;2024-02-16T11:26:12;19.00;;;16.27;;
3757;SDS011;1894;51.038;13.692;2024-02-16T11:28:40;20.93;;;17.23;;
3757;SDS011;1894;51.038;13.692;2024-02-16T11:31:08;18.73;;;16.63;;
3757;SDS011;1894;51.038;13.692;2024-02-16T11:33:36;18.30;;;16.40;;
3757;SDS011;1894;51.038;13.692;2024-02-16T11:36:13;17.70;;;15.30;;
3757;SDS011;1894;51.038;13.692;2024-02-16T11:38:45;19.20;;;15.60;;
3757;SDS011;1894;51.038;13.692;2024-02-16T11:41:13;20.03;;;15.80;;
3757;SDS011;1894;51.038;13.692;2024-02-16T11:43:41;20.37;;;16.20;;
3757;SDS011;1894;51.038;13.692;2024-02-16T11:46:12;20.47;;;16.43;;
3757;SDS011;1894;51.038;13.692;2024-02-16T11:48:41;20.13;;;15.10;;
3757;SDS011;1894;51.038;13.692;2024-02-16T11:51:08;16.67;;;14.57;;
3757;SDS011;1894;51.038;13.692;2024-02-16T11:53:36;16.80;;;14.67;;
3757;SDS011;1894;51.038;13.692;2024-02-16T11:56:03;18.80;;;14.30;;
3757;SDS011;1894;51.038;13.692;2024-02-16T11:58:31;18.83;;;14.80;;
3757;SDS011;1894;51.038;13.692;2024-02-16T12:00:59;16.33;;;14.20;;
3757;SDS011;1894;51.038;13.692;2024-02-16T12:03:29;18.17;;;12.90;;
3757;SDS011;1894;51.038;13.692;2024-02-16T12:05:57;16.67;;;14.40;;
3757;SDS011;1894;51.038;13.692;2024-02-16T12:08:32;18.90;;;15.20;;
3757;SDS011;1894;51.038;13.692;2024-02-16T12:11:01;15.87;;;14.00;;
3757;SDS011;1894;51.038;13.692;2024-02-16T12:13:29;17.10;;;13.97;;
3757;SDS011;1894;51.038;13.692;2024-02-16T12:15:56;15.60;;;14.03;;
3757;SDS011;1894;51.038;13.692;2024-02-16T12:18:24;16.60;;;14.80;;
3757;SDS011;1894;51.038;13.692;2024-02-16T12:23:32;17.60;;;16.00;;
3757;SDS011;1894;51.038;13.692;2024-02-16T12:26:00;17.23;;;15.80;;
3757;SDS011;1894;51.038;13.692;2024-02-16T12:28:29;18.17;;;16.67;;
3757;SDS011;1894;51.038;13.692;2024-02-16T12:31:00;20.73;;;18.90;;
3757;SDS011;1894;51.038;13.692;2024-02-16T12:33:29;18.87;;;16.97;;
3757;SDS011;1894;51.038;13.692;2024-02-16T12:35:57;18.03;;;16.30;;
3757;SDS011;1894;51.038;13.692;2024-02-16T12:38:24;18.93;;;17.23;;
3757;SDS011;1894;51.038;13.692;2024-02-16T12:40:52;18.33;;;16.77;;
3757;SDS011;1894;51.038;13.692;2024-02-16T12:43:19;19.97;;;18.27;;
3757;SDS011;1894;51.038;13.692;2024-02-16T12:45:46;20.27;;;18.40;;
3757;SDS011;1894;51.038;13.692;2024-02-16T12:48:14;19.47;;;17.87;;
3757;SDS011;1894;51.038;13.692;2024-02-16T12:50:41;20.30;;;18.50;;
3757;SDS011;1894;51.038;13.692;2024-02-16T12:53:09;18.87;;;17.47;;
3757;SDS011;1894;51.038;13.692;2024-02-16T12:55:36;19.77;;;18.13;;
3757;SDS011;1894;51.038;13.692;2024-02-16T12:58:04;18.03;;;16.50;;
3757;SDS011;1894;51.038;13.692;2024-02-16T13:00:31;19.57;;;17.90;;
3757;SDS011;1894;51.038;13.692;2024-02-16T13:02:58;20.70;;;17.97;;
3757;SDS011;1894;51.038;13.692;2024-02-16T13:05:26;15.87;;;14.67;;
3757;SDS011;1894;51.038;13.692;2024-02-16T13:07:54;17.30;;;15.70;;
3757;SDS011;1894;51.038;13.692;2024-02-16T13:10:21;17.90;;;16.63;;
3757;SDS011;1894;51.038;13.692;2024-02-16T13:12:48;16.50;;;15.40;;
3757;SDS011;1894;51.038;13.692;2024-02-16T13:15:15;17.23;;;15.63;;
3757;SDS011;1894;51.038;13.692;2024-02-16T13:17:53;18.87;;;17.30;;
3757;SDS011;1894;51.038;13.692;2024-02-16T13:20:22;17.80;;;16.20;;
3757;SDS011;1894;51.038;13.692;2024-02-16T13:22:49;18.20;;;16.90;;
3757;SDS011;1894;51.038;13.692;2024-02-16T13:25:16;18.30;;;16.80;;
3757;SDS011;1894;51.038;13.692;2024-02-16T13:27:45;18.87;;;17.03;;
3757;SDS011;1894;51.038;13.692;2024-02-16T13:30:13;18.90;;;17.23;;
3757;SDS011;1894;51.038;13.692;2024-02-16T13:32:40;16.80;;;15.37;;
3757;SDS011;1894;51.038;13.692;2024-02-16T13:35:07;20.20;;;18.30;;
3757;SDS011;1894;51.038;13.692;2024-02-16T13:37:35;19.93;;;17.63;;
3757;SDS011;1894;51.038;13.692;2024-02-16T13:40:03;19.70;;;17.80;;
3757;SDS011;1894;51.038;13.692;2024-02-16T13:42:33;22.87;;;17.93;;
3757;SDS011;1894;51.038;13.692;2024-02-16T13:45:01;18.53;;;16.60;;
3757;SDS011;1894;51.038;13.692;2024-02-16T13:47:29;22.57;;;16.13;;
3757;SDS011;1894;51.038;13.692;2024-02-16T13:49:56;20.10;;;18.00;;
3757;SDS011;1894;51.038;13.692;2024-02-16T13:52:24;17.83;;;16.10;;
3757;SDS011;1894;51.038;13.692;2024-02-16T13:54:52;17.87;;;15.97;;
3757;SDS011;1894;51.038;13.692;2024-02-16T13:57:20;18.90;;;16.90;;
3757;SDS011;1894;51.038;13.692;2024-02-16T13:59:47;19.73;;;17.60;;
3757;SDS011;1894;51.038;13.692;2024-02-16T14:02:15;17.80;;;15.90;;
3757;SDS011;1894;51.038;13.692;2024-02-16T14:04:42;18.53;;;15.50;;
3757;SDS011;1894;51.038;13.692;2024-02-16T14:07:10;17.03;;;15.23;;
3757;SDS011;1894;51.038;13.692;2024-02-16T14:09:37;22.10;;;16.97;;
3757;SDS011;1894;51.038;13.692;2024-02-16T14:12:05;18.33;;;16.33;;
3757;SDS011;1894;51.038;13.692;2024-02-16T14:14:33;20.60;;;16.53;;
3757;SDS011;1894;51.038;13.692;2024-02-16T14:17:04;19.23;;;16.00;;
3757;SDS011;1894;51.038;13.692;2024-02-16T14:19:31;18.50;;;16.40;;
3757;SDS011;1894;51.038;13.692;2024-02-16T14:22:01;20.07;;;17.53;;
3757;SDS011;1894;51.038;13.692;2024-02-16T14:24:29;20.70;;;16.93;;
3757;SDS011;1894;51.038;13.692;2024-02-16T14:26:57;24.50;;;16.77;;
3757;SDS011;1894;51.038;13.692;2024-02-16T14:29:25;21.43;;;17.83;;
3757;SDS011;1894;51.038;13.692;2024-02-16T14:31:53;22.83;;;17.67;;
3757;SDS011;1894;51.038;13.692;2024-02-16T14:34:20;21.50;;;19.20;;
3757;SDS011;1894;51.038;13.692;2024-02-16T14:36:47;31.53;;;20.57;;
3757;SDS011;1894;51.038;13.692;2024-02-16T14:39:14;24.43;;;20.10;;
3757;SDS011;1894;51.038;13.692;2024-02-16T14:41:43;23.93;;;19.67;;
3757;SDS011;1894;51.038;13.692;2024-02-16T14:44:10;23.87;;;21.17;;